Time;durP1;ratioP1;P1;durP2;ratioP2;P2;SDS_P1;SDS_P2;PMS_P1;PMS_P2;Temp;Humidity;BMP_temperature;BMP_pressure;BME280_temperature;BME280_humidity;BME280_pressure;Samples;Min_cycle;Max_cycle;Signal;HPM_P1;HPM_P2
2022/03/13 00:00:59;;;;;;;12.60;10.50;;;10.70;72.00;;;;;;5033641;28;20755;-77
2022/03/13 00:03:27;;;;;;;12.83;10.60;;;10.80;72.70;;;;;;5026907;28;20246;-77
2022/03/13 00:05:54;;;;;;;11.47;10.20;;;10.70;72.30;;;;;;5046895;28;20199;-77
2022/03/13 00:08:26;;;;;;;11.90;10.37;;;10.70;72.40;;;;;;5033022;28;20203;-77
2022/03/13 00:10:57;;;;;;;11.93;10.27;;;10.70;71.90;;;;;;5046578;28;20191;-77
2022/03/13 00:13:29;;;;;;;13.13;11.13;;;10.70;71.90;;;;;;5032847;28;20222;-77
2022/03/13 00:15:59;;;;;;;12.27;9.50;;;10.60;71.70;;;;;;5030981;28;20228;-77
2022/03/13 00:18:26;;;;;;;11.83;9.53;;;10.60;71.70;;;;;;5032379;28;20206;-77
2022/03/13 00:20:54;;;;;;;12.10;9.87;;;10.60;71.50;;;;;;5029972;28;20196;-77
2022/03/13 00:23:40;;;;;;;11.67;10.47;;;10.60;70.80;;;;;;5029806;28;20219;-77
2022/03/13 00:26:07;;;;;;;11.60;9.30;;;10.50;70.20;;;;;;5032097;28;20218;-77
2022/03/13 00:28:37;;;;;;;11.63;10.37;;;10.50;69.10;;;;;;5046423;28;20203;-77
2022/03/13 00:31:06;;;;;;;12.97;10.00;;;10.50;69.40;;;;;;5047787;28;20199;-77
2022/03/13 00:33:34;;;;;;;13.13;9.33;;;10.40;68.00;;;;;;5034434;28;20569;-77
2022/03/13 00:36:01;;;;;;;12.80;9.37;;;10.40;67.60;;;;;;5030614;28;20726;-77
2022/03/13 00:38:29;;;;;;;13.40;10.20;;;10.40;66.50;;;;;;5019156;28;20673;-77
2022/03/13 00:41:13;;;;;;;10.90;9.10;;;10.40;65.80;;;;;;5045816;28;20210;-77
2022/03/13 00:43:40;;;;;;;12.00;8.30;;;10.40;64.60;;;;;;5028526;28;20222;-77
2022/03/13 00:46:09;;;;;;;12.03;9.47;;;10.40;64.50;;;;;;5043414;28;20558;-77
2022/03/13 00:48:36;;;;;;;11.77;9.00;;;10.30;64.40;;;;;;5032564;28;20198;-77
2022/03/13 00:51:04;;;;;;;11.10;8.77;;;10.40;63.60;;;;;;5041942;28;20212;-77
2022/03/13 00:53:31;;;;;;;11.10;9.20;;;10.30;63.00;;;;;;5035487;28;20218;-77
2022/03/13 00:55:58;;;;;;;12.10;9.77;;;10.30;62.40;;;;;;5031749;28;20192;-77
2022/03/13 00:58:26;;;;;;;10.73;9.10;;;10.20;61.90;;;;;;5028155;28;20603;-77
2022/03/13 01:00:57;;;;;;;11.00;8.77;;;10.20;61.90;;;;;;5030358;28;20207;-77
2022/03/13 01:03:48;;;;;;;11.70;8.90;;;10.20;60.90;;;;;;5028277;28;20214;-77
2022/03/13 01:06:16;;;;;;;11.93;9.57;;;10.20;60.60;;;;;;5028381;28;20191;-77
2022/03/13 01:08:46;;;;;;;10.93;8.90;;;10.20;60.00;;;;;;5029019;28;20202;-77
2022/03/13 01:11:36;;;;;;;11.27;9.47;;;10.10;60.10;;;;;;5031520;28;20214;-77
2022/03/13 01:14:05;;;;;;;10.87;9.10;;;10.10;59.00;;;;;;5022436;28;20226;-77
2022/03/13 01:16:36;;;;;;;11.57;9.30;;;10.20;58.70;;;;;;5037456;28;20195;-77
2022/03/13 01:19:05;;;;;;;11.17;9.27;;;10.10;58.20;;;;;;5022269;28;20688;-77
2022/03/13 01:21:37;;;;;;;10.33;9.23;;;10.10;57.90;;;;;;5048019;28;20195;-77
2022/03/13 01:24:27;;;;;;;13.00;9.50;;;10.20;57.40;;;;;;5033392;28;20214;-77
2022/03/13 01:27:00;;;;;;;11.20;8.93;;;10.20;57.40;;;;;;5026441;28;20195;-78
2022/03/13 01:29:27;;;;;;;10.77;8.90;;;10.20;57.40;;;;;;5024937;28;20195;-77
2022/03/13 01:31:55;;;;;;;10.37;9.23;;;10.20;57.00;;;;;;5044393;28;20199;-77
2022/03/13 01:34:43;;;;;;;10.70;8.47;;;10.20;56.30;;;;;;5029326;28;20223;-77
2022/03/13 01:37:15;;;;;;;9.97;8.67;;;10.10;56.50;;;;;;5030033;28;20222;-77
2022/03/13 01:39:42;;;;;;;9.93;8.80;;;10.10;55.90;;;;;;5025508;28;20217;-77
2022/03/13 01:42:44;;;;;;;12.47;9.40;;;10.10;55.80;;;;;;5044329;28;20222;-78
2022/03/13 01:45:15;;;;;;;11.33;8.77;;;10.20;56.00;;;;;;5043655;28;20236;-77
2022/03/13 01:47:43;;;;;;;10.70;9.60;;;10.20;56.10;;;;;;5043320;28;20202;-77
2022/03/13 01:50:14;;;;;;;10.60;9.50;;;10.10;56.30;;;;;;5025753;28;20199;-77
2022/03/13 01:52:46;;;;;;;13.07;10.63;;;10.00;56.00;;;;;;5048318;28;20214;-77
2022/03/13 01:55:14;;;;;;;11.33;9.03;;;9.90;56.60;;;;;;5044007;28;20223;-77
2022/03/13 01:57:41;;;;;;;12.00;9.93;;;9.80;56.60;;;;;;5039603;28;20214;-77
2022/03/13 02:00:11;;;;;;;11.10;9.10;;;9.80;57.20;;;;;;5031996;28;20560;-77
2022/03/13 02:02:47;;;;;;;11.77;9.53;;;9.70;57.20;;;;;;5026411;28;20198;-76
2022/03/13 02:05:28;;;;;;;11.07;9.50;;;9.60;56.50;;;;;;5030231;28;20703;-77
2022/03/13 02:07:57;;;;;;;12.27;8.90;;;9.60;56.90;;;;;;5028590;28;20187;-77
2022/03/13 02:10:25;;;;;;;11.90;9.43;;;9.60;56.70;;;;;;5030623;28;20190;-77
2022/03/13 02:12:52;;;;;;;11.73;9.20;;;9.60;56.10;;;;;;5044638;28;20210;-77
2022/03/13 02:15:19;;;;;;;10.70;9.40;;;9.60;55.70;;;;;;5046203;28;20195;-77
2022/03/13 02:18:04;;;;;;;10.60;9.10;;;9.60;55.70;;;;;;5030757;28;20219;-77
2022/03/13 02:20:40;;;;;;;12.33;9.20;;;9.60;55.90;;;;;;5044596;28;20289;-77
2022/03/13 02:23:16;;;;;;;12.33;9.47;;;9.70;56.00;;;;;;5044207;28;20199;-77
2022/03/13 02:25:43;;;;;;;13.17;9.50;;;9.70;55.50;;;;;;5045828;28;20195;-77
2022/03/13 02:28:11;;;;;;;11.23;9.23;;;9.70;54.00;;;;;;5025043;28;20202;-77
2022/03/13 02:30:38;;;;;;;11.47;9.13;;;9.70;54.50;;;;;;5038849;28;20211;-77
2022/03/13 02:33:05;;;;;;;12.33;9.83;;;9.80;54.90;;;;;;5023884;28;20211;-77
2022/03/13 02:35:33;;;;;;;11.83;9.33;;;9.90;54.30;;;;;;5030157;28;20214;-77
2022/03/13 02:38:00;;;;;;;11.37;8.60;;;10.00;54.30;;;;;;5045569;28;20229;-77
2022/03/13 02:40:29;;;;;;;12.23;8.93;;;10.00;54.60;;;;;;5046431;28;20564;-78
2022/03/13 02:42:58;;;;;;;10.10;8.60;;;10.10;56.20;;;;;;5028335;28;20194;-77
2022/03/13 02:45:31;;;;;;;12.43;9.93;;;10.20;57.70;;;;;;5029520;28;20210;-77
2022/03/13 02:47:59;;;;;;;11.90;9.97;;;9.90;57.20;;;;;;5020876;28;20199;-77
2022/03/13 02:50:26;;;;;;;13.30;9.77;;;10.00;57.00;;;;;;5029539;28;20257;-77
2022/03/13 02:53:01;;;;;;;10.73;9.63;;;9.80;58.20;;;;;;5046375;28;20203;-77
2022/03/13 02:55:31;;;;;;;11.13;10.00;;;9.80;59.40;;;;;;5030353;28;20209;-77
2022/03/13 02:58:00;;;;;;;13.03;10.40;;;9.70;59.40;;;;;;5043629;28;20219;-77
2022/03/13 03:00:46;;;;;;;11.07;9.87;;;9.50;59.40;;;;;;5036044;28;20199;-77
2022/03/13 03:03:15;;;;;;;10.90;9.57;;;9.20;60.00;;;;;;5039763;28;20187;-77
2022/03/13 03:05:43;;;;;;;12.00;9.27;;;9.20;59.20;;;;;;5032006;28;20200;-77
2022/03/13 03:08:10;;;;;;;11.73;9.77;;;9.30;59.40;;;;;;5033548;28;20197;-78
2022/03/13 03:10:49;;;;;;;10.87;9.50;;;9.30;57.80;;;;;;5037042;28;20659;-77
2022/03/13 03:13:17;;;;;;;10.67;8.47;;;9.50;56.70;;;;;;5047591;28;20213;-77
2022/03/13 03:15:45;;;;;;;12.53;9.00;;;9.50;56.30;;;;;;5045949;28;20592;-77
2022/03/13 03:18:12;;;;;;;14.10;9.63;;;9.60;55.10;;;;;;5050039;28;20211;-77
2022/03/13 03:20:40;;;;;;;11.77;8.90;;;9.60;54.70;;;;;;5034682;28;20199;-77
2022/03/13 03:23:08;;;;;;;11.43;9.13;;;9.60;55.00;;;;;;5015057;28;20203;-77
2022/03/13 03:25:36;;;;;;;10.23;9.10;;;9.50;54.90;;;;;;5017272;28;20560;-77
2022/03/13 03:28:06;;;;;;;12.37;9.27;;;9.60;56.40;;;;;;5051165;28;20206;-77
2022/03/13 03:30:33;;;;;;;15.40;10.30;;;9.70;57.10;;;;;;5034139;28;20665;-77
2022/03/13 03:33:03;;;;;;;11.40;9.60;;;9.70;58.20;;;;;;5050071;28;20660;-77
2022/03/13 03:35:31;;;;;;;11.67;9.50;;;9.70;60.30;;;;;;5029180;28;20206;-77
2022/03/13 03:37:59;;;;;;;12.30;10.00;;;9.70;59.80;;;;;;5028670;28;20219;-77
2022/03/13 03:40:29;;;;;;;12.90;9.97;;;9.60;59.40;;;;;;5049791;28;20199;-78
2022/03/13 03:42:57;;;;;;;12.93;10.33;;;9.60;58.70;;;;;;5049494;28;20194;-77
2022/03/13 03:45:26;;;;;;;12.40;10.37;;;9.40;59.80;;;;;;5032986;28;20203;-77
2022/03/13 03:47:54;;;;;;;13.27;10.33;;;9.30;61.00;;;;;;5032510;28;20196;-77
2022/03/13 03:50:22;;;;;;;14.77;10.80;;;9.20;62.10;;;;;;5033305;28;20206;-77
2022/03/13 03:52:50;;;;;;;13.97;11.20;;;9.20;62.00;;;;;;5033290;28;20206;-77
2022/03/13 03:55:18;;;;;;;13.00;10.17;;;9.20;61.90;;;;;;5028057;28;20218;-77
2022/03/13 03:57:45;;;;;;;12.77;10.40;;;9.10;62.00;;;;;;5049185;28;20203;-77
2022/03/13 04:00:14;;;;;;;12.10;10.17;;;9.00;60.60;;;;;;5030496;28;20206;-77
2022/03/13 04:02:43;;;;;;;13.13;10.70;;;9.10;59.10;;;;;;5028676;28;20222;-77
2022/03/13 04:05:11;;;;;;;13.80;10.70;;;9.00;60.20;;;;;;5033152;28;20217;-77
2022/03/13 04:08:00;;;;;;;14.27;10.57;;;8.90;60.90;;;;;;5048705;28;20199;-77
2022/03/13 04:10:27;;;;;;;14.33;10.57;;;8.90;60.80;;;;;;5029533;28;20202;-77
2022/03/13 04:12:55;;;;;;;11.93;9.83;;;8.80;60.60;;;;;;5032259;28;20210;-77
2022/03/13 04:15:23;;;;;;;12.83;10.60;;;8.80;60.60;;;;;;5033012;28;20199;-77
2022/03/13 04:17:55;;;;;;;11.67;10.40;;;8.80;58.80;;;;;;5032478;28;20206;-77
2022/03/13 04:20:23;;;;;;;11.17;9.43;;;8.60;60.50;;;;;;5028322;28;20202;-77
2022/03/13 04:22:50;;;;;;;10.97;9.63;;;8.60;60.30;;;;;;5032945;28;20203;-77
2022/03/13 04:25:18;;;;;;;10.90;9.77;;;8.80;57.20;;;;;;5032084;28;20214;-77
2022/03/13 04:27:45;;;;;;;12.57;10.17;;;8.70;56.80;;;;;;5045951;28;20662;-77
2022/03/13 04:30:13;;;;;;;11.43;9.50;;;8.80;55.80;;;;;;5027849;28;20529;-77
2022/03/13 04:32:41;;;;;;;11.60;9.73;;;8.90;55.10;;;;;;5030133;28;20191;-77
2022/03/13 04:35:10;;;;;;;10.47;9.40;;;9.00;55.10;;;;;;5025831;28;20240;-77
2022/03/13 04:37:37;;;;;;;10.70;9.60;;;8.90;53.80;;;;;;5031545;28;20187;-77
2022/03/13 04:40:07;;;;;;;12.60;10.17;;;9.00;54.90;;;;;;5029021;28;20222;-77
2022/03/13 04:42:34;;;;;;;13.00;10.10;;;8.80;57.20;;;;;;5028928;28;20195;-77
2022/03/13 04:45:02;;;;;;;14.20;10.73;;;9.00;56.10;;;;;;5048483;28;20240;-77
2022/03/13 04:47:31;;;;;;;11.70;10.17;;;8.90;57.50;;;;;;5037256;28;20580;-77
2022/03/13 04:49:59;;;;;;;13.03;10.87;;;8.50;59.90;;;;;;5031477;28;20202;-77
2022/03/13 04:52:28;;;;;;;13.40;10.70;;;8.50;61.30;;;;;;5031861;28;20206;-77
2022/03/13 04:54:56;;;;;;;11.73;9.03;;;8.70;59.30;;;;;;5032434;28;20219;-77
2022/03/13 04:57:23;;;;;;;11.90;10.30;;;8.90;58.90;;;;;;5037315;28;20210;-77
2022/03/13 05:00:00;;;;;;;12.90;9.73;;;9.10;58.80;;;;;;5030326;28;20222;-77
2022/03/13 05:02:27;;;;;;;13.47;10.63;;;9.10;59.70;;;;;;5046231;28;20226;-77
2022/03/13 05:04:55;;;;;;;12.50;9.90;;;9.00;58.60;;;;;;5040736;28;20219;-77
2022/03/13 05:07:23;;;;;;;12.67;10.73;;;8.90;57.90;;;;;;5047978;28;20675;-77
2022/03/13 05:09:51;;;;;;;14.87;10.53;;;8.60;58.10;;;;;;5030733;28;20660;-77
2022/03/13 05:12:21;;;;;;;14.20;10.30;;;8.60;58.50;;;;;;5049233;28;20194;-77
2022/03/13 05:14:49;;;;;;;12.53;10.83;;;8.50;57.20;;;;;;5045394;28;20241;-77
2022/03/13 05:17:33;;;;;;;13.13;10.30;;;8.40;59.00;;;;;;5030553;28;20199;-77
2022/03/13 05:20:00;;;;;;;16.50;10.47;;;8.10;60.90;;;;;;5047678;28;20246;-77
2022/03/13 05:22:28;;;;;;;13.17;10.23;;;7.90;61.30;;;;;;5049013;28;20649;-77
2022/03/13 05:24:58;;;;;;;12.50;10.87;;;7.70;61.40;;;;;;5044594;28;20211;-77
2022/03/13 05:27:27;;;;;;;14.20;10.27;;;7.70;61.10;;;;;;5032574;28;20187;-77
2022/03/13 05:29:55;;;;;;;13.73;10.30;;;7.40;61.50;;;;;;5028765;28;20194;-77
2022/03/13 05:32:51;;;;;;;15.17;10.60;;;7.40;62.80;;;;;;5047594;28;20195;-77
2022/03/13 05:35:19;;;;;;;12.70;10.17;;;7.30;63.90;;;;;;5034537;28;20238;-77
2022/03/13 05:37:47;;;;;;;11.87;10.37;;;7.20;62.70;;;;;;5027475;28;20198;-77
2022/03/13 05:40:18;;;;;;;10.97;9.77;;;7.30;63.00;;;;;;5028150;28;20211;-77
2022/03/13 05:42:49;;;;;;;13.90;10.13;;;7.30;64.50;;;;;;5029135;28;20196;-77
2022/03/13 05:45:20;;;;;;;14.00;9.93;;;7.20;65.70;;;;;;5043716;28;20223;-77
2022/03/13 05:47:49;;;;;;;11.40;9.87;;;7.20;66.80;;;;;;5028391;28;20206;-77
2022/03/13 05:50:55;;;;;;;13.30;10.53;;;7.00;66.90;;;;;;5045552;28;20202;-77
2022/03/13 05:53:23;;;;;;;11.63;9.77;;;6.70;68.90;;;;;;5024285;28;20215;-77
2022/03/13 05:55:51;;;;;;;12.60;9.80;;;6.90;69.20;;;;;;5030572;28;20229;-77
2022/03/13 05:58:19;;;;;;;13.63;10.20;;;6.70;67.30;;;;;;5016939;28;20195;-77
2022/03/13 06:01:03;;;;;;;11.53;10.13;;;6.80;68.90;;;;;;5029591;28;20211;-77
2022/03/13 06:03:30;;;;;;;11.60;9.47;;;6.80;69.60;;;;;;5031907;28;20577;-75
2022/03/13 06:05:58;;;;;;;11.70;9.80;;;6.70;68.90;;;;;;5048668;28;20199;-75
2022/03/13 06:08:26;;;;;;;14.93;10.63;;;6.40;69.10;;;;;;5045935;28;20199;-75
2022/03/13 06:10:55;;;;;;;16.00;10.47;;;6.60;69.00;;;;;;5032011;28;20653;-75
2022/03/13 06:13:25;;;;;;;13.40;10.30;;;6.70;67.60;;;;;;5041546;28;20226;-77
2022/03/13 06:15:53;;;;;;;14.13;9.67;;;7.10;65.90;;;;;;5027572;28;20191;-77
2022/03/13 06:18:34;;;;;;;13.30;9.47;;;7.50;64.80;;;;;;5027964;28;20195;-77
2022/03/13 06:21:13;;;;;;;10.83;8.77;;;7.40;64.70;;;;;;5028396;28;20684;-77
2022/03/13 06:23:40;;;;;;;11.47;10.27;;;8.80;71.30;;;;;;5029282;28;20219;-76
2022/03/13 06:26:10;;;;;;;13.00;10.03;;;8.90;62.70;;;;;;5028168;28;20676;-76
2022/03/13 06:28:38;;;;;;;13.43;10.30;;;8.40;62.60;;;;;;5029604;28;20206;-76
2022/03/13 06:31:05;;;;;;;12.43;9.97;;;8.10;61.60;;;;;;5030830;28;20210;-76
2022/03/13 06:33:33;;;;;;;12.13;10.27;;;8.30;62.10;;;;;;5030958;28;20223;-76
2022/03/13 06:36:24;;;;;;;11.60;9.67;;;8.20;61.00;;;;;;5010691;28;20211;-76
2022/03/13 06:39:18;;;;;;;13.93;9.27;;;8.30;59.90;;;;;;5017536;28;20688;-76
2022/03/13 06:41:49;;;;;;;11.43;9.87;;;8.50;59.40;;;;;;5010841;28;20203;-76
2022/03/13 06:44:17;;;;;;;12.53;10.07;;;8.70;58.20;;;;;;5012784;28;20677;-76
2022/03/13 06:46:54;;;;;;;11.80;10.10;;;8.80;58.00;;;;;;5013096;28;20187;-76
2022/03/13 06:49:26;;;;;;;12.27;10.40;;;8.60;58.30;;;;;;5030537;28;20211;-76
2022/03/13 06:51:54;;;;;;;11.80;10.03;;;8.40;59.10;;;;;;5030608;28;20600;-76
2022/03/13 06:54:21;;;;;;;13.03;10.17;;;8.20;58.80;;;;;;5029675;28;20219;-77
2022/03/13 06:56:50;;;;;;;12.70;10.40;;;8.40;59.80;;;;;;5029881;28;20599;-76
2022/03/13 06:59:18;;;;;;;14.30;10.50;;;8.70;60.30;;;;;;5031067;28;20699;-76
2022/03/13 07:01:46;;;;;;;12.90;10.27;;;8.80;59.70;;;;;;5030419;28;20230;-76
2022/03/13 07:04:14;;;;;;;12.80;10.67;;;8.80;59.10;;;;;;5043167;28;20215;-76
2022/03/13 07:06:42;;;;;;;13.03;10.97;;;8.80;59.90;;;;;;5043459;28;20214;-76
2022/03/13 07:09:10;;;;;;;13.37;10.90;;;8.90;60.50;;;;;;5046279;28;20203;-76
2022/03/13 07:11:39;;;;;;;14.07;11.20;;;8.90;60.80;;;;;;5024075;28;20541;-77
2022/03/13 07:14:08;;;;;;;12.53;10.53;;;8.80;59.20;;;;;;5024513;28;20584;-76
2022/03/13 07:16:48;;;;;;;17.40;11.30;;;8.80;59.80;;;;;;5044000;28;20195;-77
2022/03/13 07:19:16;;;;;;;14.70;11.37;;;8.60;58.90;;;;;;5032728;28;20206;-76
2022/03/13 07:21:43;;;;;;;16.63;11.77;;;8.70;59.20;;;;;;5028098;28;20222;-76
2022/03/13 07:24:11;;;;;;;13.60;10.83;;;8.70;59.10;;;;;;5028308;28;20215;-76
2022/03/13 07:26:39;;;;;;;15.37;11.20;;;8.60;60.50;;;;;;5047465;28;20198;-77
2022/03/13 07:29:07;;;;;;;14.00;10.87;;;8.60;62.20;;;;;;5045311;28;20211;-77
2022/03/13 07:31:36;;;;;;;12.20;10.73;;;8.80;61.80;;;;;;5028911;28;20654;-76
2022/03/13 07:34:03;;;;;;;12.93;11.23;;;8.90;60.40;;;;;;5045052;28;20210;-76
2022/03/13 07:36:33;;;;;;;16.67;11.60;;;8.90;59.20;;;;;;5031635;28;20191;-76
2022/03/13 07:39:01;;;;;;;13.30;10.77;;;9.00;59.40;;;;;;5028206;28;20210;-77
2022/03/13 07:41:29;;;;;;;13.80;10.70;;;9.00;58.20;;;;;;5032369;28;20210;-77
2022/03/13 07:43:57;;;;;;;15.87;11.33;;;9.20;56.80;;;;;;5031743;28;20219;-77
2022/03/13 07:46:25;;;;;;;15.70;11.93;;;9.10;57.90;;;;;;5029177;28;20190;-76
2022/03/13 07:48:53;;;;;;;13.67;11.13;;;9.10;58.80;;;;;;5029981;28;20216;-76
2022/03/13 07:51:20;;;;;;;15.20;12.17;;;9.20;59.00;;;;;;5046000;28;20195;-77
2022/03/13 07:53:48;;;;;;;16.00;11.70;;;9.30;57.80;;;;;;5030664;28;20218;-77
2022/03/13 07:56:15;;;;;;;15.27;11.77;;;9.50;57.70;;;;;;5049411;28;20230;-77
2022/03/13 07:58:42;;;;;;;13.10;11.53;;;9.70;58.50;;;;;;5048711;28;20206;-77
2022/03/13 08:01:10;;;;;;;15.63;13.43;;;9.90;58.30;;;;;;5047871;28;20215;-77
2022/03/13 08:03:39;;;;;;;15.47;12.20;;;10.10;56.90;;;;;;5031612;28;20230;-77
2022/03/13 08:06:06;;;;;;;16.07;12.77;;;10.00;56.00;;;;;;5048860;28;20206;-77
2022/03/13 08:08:34;;;;;;;17.33;12.37;;;10.00;56.40;;;;;;5032118;28;20218;-77
2022/03/13 08:11:01;;;;;;;15.30;12.03;;;10.00;57.30;;;;;;5048518;28;20199;-76
2022/03/13 08:13:31;;;;;;;16.00;12.07;;;10.10;56.30;;;;;;5033061;28;20226;-76
2022/03/13 08:15:58;;;;;;;13.40;11.67;;;10.20;55.00;;;;;;5033157;28;20195;-77
2022/03/13 08:18:27;;;;;;;14.40;10.90;;;10.30;53.20;;;;;;5031730;28;20236;-77
2022/03/13 08:20:56;;;;;;;14.13;11.70;;;10.50;53.40;;;;;;5031081;28;20207;-76
2022/03/13 08:23:23;;;;;;;16.87;13.47;;;10.50;51.30;;;;;;5032477;28;20218;-76
2022/03/13 08:25:51;;;;;;;13.43;10.97;;;10.60;52.20;;;;;;5031226;28;20194;-77
2022/03/13 08:28:18;;;;;;;15.53;11.90;;;10.70;50.30;;;;;;5030912;28;20206;-77
2022/03/13 08:30:45;;;;;;;13.80;11.45;;;10.90;53.10;;;;;;5038035;28;20194;-77
2022/03/13 08:33:13;;;;;;;17.75;12.45;;;11.00;52.70;;;;;;5039489;28;20206;-77
2022/03/13 08:35:40;;;;;;;16.00;12.35;;;11.00;52.60;;;;;;5034032;28;20600;-77
2022/03/13 08:38:09;;;;;;;14.98;12.05;;;11.20;54.50;;;;;;5031697;28;20210;-77
2022/03/13 08:40:36;;;;;;;17.75;12.43;;;11.20;55.00;;;;;;5032146;28;20211;-77
2022/03/13 08:43:05;;;;;;;12.75;11.32;;;11.20;54.40;;;;;;5031649;28;20186;-77
2022/03/13 08:45:33;;;;;;;14.50;12.45;;;11.30;53.80;;;;;;5031440;28;20195;-76
2022/03/13 08:48:00;;;;;;;15.07;11.55;;;11.40;53.80;;;;;;5030370;28;20199;-77
2022/03/13 08:50:27;;;;;;;14.98;11.63;;;11.50;53.80;;;;;;5030390;28;20210;-77
2022/03/13 08:52:56;;;;;;;14.00;11.82;;;11.60;53.30;;;;;;5031734;28;20198;-77
2022/03/13 08:55:25;;;;;;;13.80;11.70;;;11.80;52.30;;;;;;5032878;28;20203;-77
2022/03/13 08:57:52;;;;;;;14.98;11.73;;;11.80;52.00;;;;;;5027222;28;20203;-76
2022/03/13 09:00:21;;;;;;;15.48;12.48;;;11.90;51.80;;;;;;5031601;28;20206;-77
2022/03/13 09:02:50;;;;;;;14.60;11.73;;;12.00;51.20;;;;;;5048696;28;20715;-77
2022/03/13 09:05:17;;;;;;;15.77;11.45;;;12.00;50.70;;;;;;5031237;28;20229;-77
2022/03/13 09:07:45;;;;;;;13.63;11.63;;;12.20;50.60;;;;;;5032843;28;20202;-77
2022/03/13 09:10:12;;;;;;;13.68;11.45;;;12.30;50.20;;;;;;5031381;28;20206;-76
2022/03/13 09:12:41;;;;;;;16.02;11.75;;;12.20;49.10;;;;;;5031529;28;20199;-76
2022/03/13 09:15:09;;;;;;;14.43;11.82;;;12.10;49.40;;;;;;5031050;28;20226;-77
2022/03/13 09:17:55;;;;;;;12.65;11.02;;;12.40;50.50;;;;;;5029142;28;20207;-76
2022/03/13 09:20:23;;;;;;;15.05;12.13;;;12.60;51.20;;;;;;5027825;28;20199;-77
2022/03/13 09:22:50;;;;;;;12.25;10.93;;;12.60;51.10;;;;;;5029876;28;20664;-76
2022/03/13 09:25:20;;;;;;;17.35;11.80;;;12.80;51.80;;;;;;5031669;28;20221;-76
2022/03/13 09:27:49;;;;;;;14.80;12.15;;;12.90;51.00;;;;;;5030595;28;20188;-77
2022/03/13 09:30:16;;;;;;;14.35;12.25;;;13.00;51.20;;;;;;5015544;28;20199;-76
2022/03/13 09:32:44;;;;;;;14.70;11.70;;;12.80;49.70;;;;;;5026767;28;20202;-76
2022/03/13 09:35:12;;;;;;;14.23;11.77;;;12.90;51.90;;;;;;5028800;28;20226;-77
2022/03/13 09:37:40;;;;;;;14.50;11.13;;;13.10;52.20;;;;;;5024468;28;20191;-77
2022/03/13 09:40:12;;;;;;;13.52;11.18;;;13.40;55.10;;;;;;5041355;28;20200;-77
2022/03/13 09:42:39;;;;;;;12.65;11.00;;;14.00;57.70;;;;;;5016303;28;20223;-77
2022/03/13 09:45:09;;;;;;;15.15;12.95;;;14.00;53.60;;;;;;5032510;28;20313;-78
2022/03/13 09:47:37;;;;;;;17.40;13.38;;;14.30;53.20;;;;;;5037703;28;20198;-78
2022/03/13 09:50:15;;;;;;;13.50;12.10;;;14.00;52.90;;;;;;5023403;28;20199;-78
2022/03/13 09:52:45;;;;;;;17.92;12.73;;;13.90;52.30;;;;;;5051147;28;20210;-77
2022/03/13 09:55:14;;;;;;;15.10;12.20;;;14.00;52.60;;;;;;5037238;28;20231;-79
2022/03/13 09:57:46;;;;;;;15.30;12.32;;;14.10;51.70;;;;;;5021160;28;20195;-80
2022/03/13 10:00:20;;;;;;;15.43;13.13;;;13.90;51.90;;;;;;5038281;28;20203;-80
2022/03/13 10:02:47;;;;;;;14.70;12.55;;;13.80;51.50;;;;;;5026522;28;20223;-79
2022/03/13 10:05:17;;;;;;;14.98;12.43;;;13.90;52.00;;;;;;5019554;28;20211;-79
2022/03/13 10:08:00;;;;;;;17.38;13.38;;;13.90;53.60;;;;;;5019887;28;20626;-77
2022/03/13 10:10:29;;;;;;;15.02;12.82;;;13.80;52.50;;;;;;5022663;28;20191;-78
2022/03/13 10:12:57;;;;;;;15.32;13.25;;;13.70;52.70;;;;;;5025985;28;20190;-77
2022/03/13 10:15:46;;;;;;;17.23;13.38;;;13.90;53.70;;;;;;5017577;28;20211;-79
2022/03/13 10:18:15;;;;;;;16.77;13.30;;;13.90;54.40;;;;;;5048736;28;20206;-78
2022/03/13 10:20:46;;;;;;;18.50;13.27;;;13.80;53.40;;;;;;5029965;28;20215;-79
2022/03/13 10:23:19;;;;;;;15.45;12.77;;;14.00;53.30;;;;;;4989706;28;20591;-78
2022/03/13 10:25:49;;;;;;;15.15;12.60;;;14.20;54.30;;;;;;5017522;28;20200;-78
2022/03/13 10:28:20;;;;;;;15.32;12.13;;;14.20;54.00;;;;;;5005548;28;20199;-78
2022/03/13 10:31:06;;;;;;;17.45;12.10;;;14.30;53.80;;;;;;5008419;28;20192;-78
2022/03/13 10:33:52;;;;;;;16.13;13.43;;;14.40;53.80;;;;;;5010647;28;20224;-78
2022/03/13 10:36:24;;;;;;;14.48;11.98;;;14.40;54.00;;;;;;5008849;28;20210;-77
2022/03/13 10:38:51;;;;;;;13.80;12.40;;;14.50;53.90;;;;;;5006544;28;20196;-77
2022/03/13 10:41:20;;;;;;;15.25;12.98;;;14.50;53.80;;;;;;5021308;28;20700;-77
2022/03/13 10:43:57;;;;;;;17.55;12.80;;;14.60;53.90;;;;;;5003952;28;20247;-77
2022/03/13 10:46:28;;;;;;;15.77;12.75;;;14.90;53.80;;;;;;5004497;28;20196;-77
2022/03/13 10:48:58;;;;;;;16.70;13.00;;;14.80;53.50;;;;;;5020739;28;20704;-77
2022/03/13 10:51:46;;;;;;;16.05;12.93;;;14.80;53.50;;;;;;5009081;28;20191;-77
2022/03/13 10:54:28;;;;;;;15.13;12.65;;;14.90;54.40;;;;;;5008105;28;20258;-77
2022/03/13 10:57:09;;;;;;;16.73;13.10;;;15.10;53.80;;;;;;5008655;28;20198;-77
2022/03/13 10:59:40;;;;;;;15.18;11.70;;;15.20;54.70;;;;;;4999585;28;20187;-77
2022/03/13 11:02:25;;;;;;;16.42;12.60;;;15.20;54.70;;;;;;5009276;28;20216;-77
2022/03/13 11:04:57;;;;;;;13.55;11.80;;;15.10;53.50;;;;;;5007937;28;20600;-77
2022/03/13 11:07:26;;;;;;;15.80;12.38;;;15.10;54.40;;;;;;5008022;28;20206;-77
2022/03/13 11:09:54;;;;;;;14.23;11.90;;;15.20;54.20;;;;;;5000142;28;20187;-77
2022/03/13 11:12:23;;;;;;;14.60;12.55;;;15.50;55.10;;;;;;5003767;28;20207;-77
2022/03/13 11:14:52;;;;;;;13.27;11.75;;;15.50;53.90;;;;;;5009373;28;20593;-77
2022/03/13 11:17:25;;;;;;;13.20;11.80;;;15.60;54.60;;;;;;5006000;28;20562;-77
2022/03/13 11:20:23;;;;;;;14.63;11.15;;;15.70;54.80;;;;;;5009074;28;20221;-77
2022/03/13 11:22:52;;;;;;;14.38;11.82;;;15.80;54.30;;;;;;5011124;28;20219;-77
2022/03/13 11:25:21;;;;;;;14.10;11.15;;;15.90;54.50;;;;;;5020153;28;20211;-77
2022/03/13 11:27:48;;;;;;;14.38;11.45;;;16.20;54.60;;;;;;5007337;28;20207;-77
2022/03/13 11:30:17;;;;;;;12.48;11.18;;;16.20;54.70;;;;;;5025335;28;20218;-77
2022/03/13 11:32:47;;;;;;;17.30;12.32;;;16.20;54.30;;;;;;5011329;28;20196;-77
2022/03/13 11:35:27;;;;;;;15.27;12.25;;;16.10;54.10;;;;;;5021451;28;20579;-77
2022/03/13 11:37:56;;;;;;;12.73;10.98;;;16.40;55.40;;;;;;5004914;28;20203;-78
2022/03/13 11:40:33;;;;;;;12.88;10.77;;;16.70;54.80;;;;;;5009451;28;20207;-78
2022/03/13 11:43:08;;;;;;;13.40;11.07;;;16.80;54.30;;;;;;5011702;28;20215;-77
2022/03/13 11:45:39;;;;;;;11.43;10.25;;;16.60;53.60;;;;;;5014753;28;20205;-77
2022/03/13 11:48:45;;;;;;;11.40;9.68;;;16.60;54.40;;;;;;5013037;28;20195;-77
2022/03/13 11:51:29;;;;;;;12.38;10.20;;;16.70;54.50;;;;;;5009743;28;20207;-77
2022/03/13 11:53:58;;;;;;;9.88;8.70;;;16.70;53.90;;;;;;5019973;28;20226;-77
2022/03/13 11:56:31;;;;;;;11.25;9.73;;;16.60;54.00;;;;;;5013500;28;20214;-77
2022/03/13 11:59:15;;;;;;;11.80;9.20;;;16.80;53.20;;;;;;5008033;28;20208;-77
2022/03/13 12:01:44;;;;;;;10.02;8.63;;;16.90;54.40;;;;;;5024445;28;20208;-77
2022/03/13 12:04:31;;;;;;;11.85;10.05;;;16.70;54.00;;;;;;5024327;28;20234;-76
2022/03/13 12:07:27;;;;;;;11.30;9.02;;;16.70;53.70;;;;;;5008267;28;20199;-76
2022/03/13 12:09:55;;;;;;;11.07;8.73;;;16.70;54.90;;;;;;5010862;28;20215;-76
2022/03/13 12:12:23;;;;;;;10.00;8.95;;;17.30;53.80;;;;;;5007226;28;20554;-76
2022/03/13 12:14:59;;;;;;;9.70;8.55;;;17.30;52.70;;;;;;5010236;28;20215;-76
2022/03/13 12:17:43;;;;;;;10.18;8.68;;;17.40;52.80;;;;;;5010203;28;20208;-76
2022/03/13 12:20:21;;;;;;;10.20;8.00;;;17.20;53.00;;;;;;5013912;28;20192;-76
2022/03/13 12:22:54;;;;;;;11.25;10.10;;;17.20;53.10;;;;;;5029289;28;20214;-76
2022/03/13 12:25:23;;;;;;;10.25;8.95;;;17.50;53.20;;;;;;5012035;28;20251;-76
2022/03/13 12:27:50;;;;;;;10.35;9.35;;;17.50;52.10;;;;;;5028779;28;20231;-76
2022/03/13 12:30:35;;;;;;;10.38;9.10;;;17.80;52.40;;;;;;5024263;28;20191;-76
2022/03/13 12:33:05;;;;;;;9.98;8.70;;;17.70;51.60;;;;;;5013121;28;20203;-77
2022/03/13 12:35:32;;;;;;;11.10;9.07;;;19.10;51.20;;;;;;5027930;28;20669;-76
2022/03/13 12:38:02;;;;;;;11.13;9.65;;;19.10;50.00;;;;;;5009799;28;20202;-76
2022/03/13 12:40:33;;;;;;;10.77;9.68;;;18.50;49.70;;;;;;5008848;28;20653;-77
2022/03/13 12:43:07;;;;;;;11.13;9.25;;;19.10;51.90;;;;;;5009625;28;20226;-76
2022/03/13 12:45:34;;;;;;;14.25;10.25;;;19.20;49.80;;;;;;5005343;28;20565;-76
2022/03/13 12:48:04;;;;;;;11.45;10.10;;;19.40;50.00;;;;;;5015950;28;20195;-76
2022/03/13 12:50:38;;;;;;;11.15;9.65;;;19.60;50.00;;;;;;5012576;28;20199;-76
2022/03/13 12:53:07;;;;;;;10.10;8.65;;;20.50;47.70;;;;;;5010965;28;20219;-76
2022/03/13 12:55:35;;;;;;;9.15;7.75;;;19.60;48.50;;;;;;5022775;28;20566;-79